Main page


Airports :

Gran Canaria, Spain

Gran Canaria Airport

latitude: 27-56N, longitude: 015-23W, elevation: 23 m

Current weather observation

The report was made 17 minutes ago, at 23:00 UTC
Wind 17 kt from the North
Temperature 16°C
Humidity 68%
Pressure 1027 hPa
Visibility 10 km or more
Few clouds at a height of 2800 ft

METAR: GCLP 222300Z 36017KT 9999 FEW028 16/10 Q1027 NOSIG

Time: 23:17 (23:17 UTC)


The report was made 3 hours and 17 minutes ago, at 20:00 UTC
Forecast valid from 22 at 21 UTC to 23 at 21 UTC
Wind 20 kt from the North
Visibility 10 km or more
Scattered clouds at a height of 3000 ft
from 23 at 12 UTC to 23 at 18 UTC
Wind 20 kt from the North with gusts up to 32 kt

TAF: GCLP 222000Z 2221/2321 35020KT 9999 SCT030 TX21/2314Z TN16/2306Z TEMPO 2312/2318 01020G32KT

Weather observations and forecasts of more than 4000 airports (METAR and TAF reports).

The available stations are represented by yellow and red dots on the map.

Hover mouse over dot to see the name of the station.

Then click to see weather observations and forecasts.

To change the map : click on the green buttons with a black cross to zoom in, on the green button with a dash to zoom out, or on the green arrows for adjacent maps.